Terminal Aerodrome Forecast
Issued by NWS Bismarck, ND

Home | Current Version | Previous Version | Text Only | Print | Product List | Glossary Off
Versions: 1 2 3 4 5 6 7 8 9 10 11 12 13

000
FTUS43 KBIS 251720
TAFISN
TAF
KISN 251720Z 2518/2618 15013G20KT P6SM FEW250
     FM260100 13005KT P6SM SCT250
     FM260600 VRB03KT P6SM SCT250
     FM261300 12004KT P6SM SCT140 SCT200=

USA.gov is the U.S. government's official web portal to all federal, state and local government web resources and services.